createdAt,value
2022-11-13T00:00:22.437Z,50.05
2022-11-13T00:02:48.917Z,49.85
2022-11-13T00:05:15.526Z,50.06
2022-11-13T00:07:42.041Z,49.68
2022-11-13T00:10:09.015Z,49.81
2022-11-13T00:12:35.585Z,50.12
2022-11-13T00:15:02.057Z,50.30
2022-11-13T00:17:28.943Z,50.67
2022-11-13T00:19:55.514Z,50.55
2022-11-13T00:22:22.084Z,50.70
2022-11-13T00:24:48.565Z,50.55
2022-11-13T00:27:15.026Z,51.04
2022-11-13T00:29:41.513Z,50.93
2022-11-13T00:32:08.095Z,50.63
2022-11-13T00:34:47.012Z,50.45
2022-11-13T00:37:14.851Z,50.72
2022-11-13T00:39:41.299Z,50.88
2022-11-13T00:42:17.756Z,50.66
2022-11-13T00:44:44.308Z,50.92
2022-11-13T00:47:10.870Z,51.29
2022-11-13T00:49:37.350Z,51.46
2022-11-13T00:52:04.056Z,51.52
2022-11-13T00:54:30.492Z,51.09
2022-11-13T00:56:56.925Z,51.46
2022-11-13T00:59:23.364Z,51.30
2022-11-13T01:01:49.913Z,51.59
2022-11-13T01:04:16.361Z,51.66
2022-11-13T01:06:44.447Z,51.86
2022-11-13T01:09:10.894Z,51.47
2022-11-13T01:11:37.370Z,51.40
2022-11-13T01:14:03.830Z,50.75
2022-11-13T01:16:30.271Z,50.79
2022-11-13T01:18:57.216Z,50.62
2022-11-13T01:21:27.215Z,50.68
2022-11-13T01:23:54.685Z,51.01
2022-11-13T01:26:22.672Z,50.69
2022-11-13T01:28:49.559Z,50.57
2022-11-13T01:31:19.567Z,50.46
2022-11-13T01:33:47.397Z,50.35
2022-11-13T01:36:20.359Z,50.27
2022-11-13T01:38:47.017Z,50.38
2022-11-13T01:41:33.532Z,50.67
2022-11-13T01:44:00.745Z,50.37
2022-11-13T01:46:32.166Z,50.75
2022-11-13T01:49:18.370Z,50.53
2022-11-13T01:51:51.854Z,50.31
2022-11-13T01:54:25.828Z,50.24
2022-11-13T01:56:53.435Z,50.38
2022-11-13T01:59:29.723Z,51.08
2022-11-13T02:01:56.726Z,50.46
2022-11-13T02:04:23.529Z,51.34
2022-11-13T02:06:54.927Z,51.48
2022-11-13T02:09:25.143Z,51.55
2022-11-13T02:11:52.145Z,51.11
2022-11-13T02:14:20.417Z,51.32
2022-11-13T02:16:48.209Z,51.24
2022-11-13T02:19:38.730Z,51.89
2022-11-13T02:22:15.586Z,51.60
2022-11-13T02:24:45.471Z,51.41
2022-11-13T02:27:22.541Z,51.79
2022-11-13T02:29:49.051Z,52.33
2022-11-13T02:32:15.524Z,51.93
2022-11-13T02:34:42.101Z,52.08
2022-11-13T02:37:08.623Z,51.83
2022-11-13T02:39:35.257Z,51.57
2022-11-13T02:42:01.691Z,51.05
2022-11-13T02:44:28.149Z,51.33
2022-11-13T02:46:54.630Z,51.24
2022-11-13T02:49:21.074Z,51.41
2022-11-13T02:51:47.552Z,51.46
2022-11-13T02:54:16.959Z,52.08
2022-11-13T02:56:43.897Z,51.33
2022-11-13T02:59:10.427Z,51.84
2022-11-13T03:01:36.947Z,52.23
2022-11-13T03:04:03.662Z,53.88
2022-11-13T03:06:30.083Z,53.90
2022-11-13T03:08:56.506Z,53.47
2022-11-13T03:11:23.876Z,53.17
2022-11-13T03:13:50.350Z,53.16
2022-11-13T03:16:17.505Z,52.85
2022-11-13T03:18:43.989Z,52.50
2022-11-13T03:21:12.860Z,52.03
2022-11-13T03:23:40.380Z,51.85
2022-11-13T03:26:08.431Z,51.39
2022-11-13T03:28:35.720Z,51.17
2022-11-13T03:31:03.606Z,51.21
2022-11-13T03:33:30.364Z,51.22
2022-11-13T03:35:57.102Z,51.54
2022-11-13T03:38:24.096Z,51.84
2022-11-13T03:40:51.057Z,52.38
2022-11-13T03:43:17.958Z,52.42
2022-11-13T03:45:46.436Z,52.14
2022-11-13T03:48:14.305Z,52.08
2022-11-13T03:50:45.609Z,52.20
2022-11-13T03:53:12.807Z,51.67
2022-11-13T03:55:39.725Z,51.75
2022-11-13T03:58:06.280Z,51.50
2022-11-13T04:00:33.116Z,51.46
2022-11-13T04:02:59.558Z,51.31
2022-11-13T04:05:26.197Z,51.33
2022-11-13T04:07:52.723Z,51.42
2022-11-13T04:10:19.160Z,51.48
2022-11-13T04:12:45.731Z,51.50
2022-11-13T04:15:12.281Z,52.09
2022-11-13T04:17:38.749Z,51.66
2022-11-13T04:20:05.791Z,51.67
2022-11-13T04:22:32.327Z,51.51
2022-11-13T04:24:58.984Z,51.32
2022-11-13T04:27:25.450Z,51.74
2022-11-13T04:29:52.121Z,51.54
2022-11-13T04:32:18.562Z,51.31
2022-11-13T04:34:44.976Z,51.38
2022-11-13T04:37:12.664Z,51.21
2022-11-13T04:39:39.496Z,51.75
2022-11-13T04:42:24.629Z,51.96
2022-11-13T04:44:51.117Z,52.07
2022-11-13T04:47:17.587Z,52.02
2022-11-13T04:49:44.024Z,52.00
2022-11-13T04:52:10.473Z,51.91
2022-11-13T04:54:36.929Z,51.69
2022-11-13T04:57:03.452Z,51.65
2022-11-13T04:59:29.957Z,52.12
2022-11-13T05:01:56.893Z,51.89
2022-11-13T05:04:23.464Z,51.55
2022-11-13T05:06:50.002Z,51.55
2022-11-13T05:09:16.558Z,50.57
2022-11-13T05:11:43.038Z,51.75
2022-11-13T05:14:12.527Z,52.41
2022-11-13T05:16:39.130Z,52.75
2022-11-13T05:19:08.644Z,52.35
2022-11-13T05:21:36.317Z,53.57
2022-11-13T05:24:03.468Z,53.69
2022-11-13T05:26:30.316Z,52.78
2022-11-13T05:28:58.367Z,52.72
2022-11-13T05:31:25.709Z,52.10
2022-11-13T05:33:52.225Z,52.11
2022-11-13T05:36:19.751Z,52.37
2022-11-13T05:38:46.412Z,52.15
2022-11-13T05:41:18.512Z,52.67
2022-11-13T05:43:45.615Z,52.29
2022-11-13T05:46:17.138Z,52.12
2022-11-13T05:48:44.221Z,51.87
2022-11-13T05:51:19.903Z,52.01
2022-11-13T05:53:46.413Z,51.48
2022-11-13T05:56:32.197Z,51.81
2022-11-13T05:58:59.929Z,51.77
2022-11-13T06:01:38.051Z,51.86
2022-11-13T06:04:05.911Z,51.77
2022-11-13T06:06:32.850Z,51.83
2022-11-13T06:09:01.131Z,51.70
2022-11-13T06:11:29.438Z,51.82
2022-11-13T06:13:56.758Z,52.15
2022-11-13T06:16:26.421Z,52.54
2022-11-13T06:19:01.041Z,51.82
2022-11-13T06:21:29.807Z,51.78
2022-11-13T06:23:57.887Z,51.64
2022-11-13T06:26:30.235Z,51.78
2022-11-13T06:28:57.265Z,51.74
2022-11-13T06:31:26.227Z,52.40
2022-11-13T06:33:53.131Z,51.93
2022-11-13T06:36:24.650Z,51.85
2022-11-13T06:38:51.760Z,51.57
2022-11-13T06:41:21.485Z,51.15
2022-11-13T06:43:48.008Z,51.30
2022-11-13T06:46:19.722Z,51.59
2022-11-13T06:48:46.928Z,51.25
2022-11-13T06:51:16.715Z,50.93
2022-11-13T06:53:43.553Z,50.98
2022-11-13T06:56:10.499Z,50.97
2022-11-13T06:58:37.274Z,50.86
2022-11-13T07:01:08.397Z,50.72
2022-11-13T07:03:34.931Z,50.60
2022-11-13T07:06:06.498Z,50.80
2022-11-13T07:08:33.785Z,50.87
2022-11-13T07:11:00.587Z,51.13
2022-11-13T07:13:27.993Z,51.00
2022-11-13T07:15:54.727Z,51.17
2022-11-13T07:18:24.140Z,51.39
2022-11-13T07:20:50.861Z,51.11
2022-11-13T07:23:17.374Z,50.87
2022-11-13T07:25:43.940Z,51.25
2022-11-13T07:28:10.452Z,50.72
2022-11-13T07:30:37.130Z,50.51
2022-11-13T07:33:04.336Z,50.86
2022-11-13T07:35:31.205Z,50.65
2022-11-13T07:37:58.663Z,50.45
2022-11-13T07:40:26.038Z,50.40
2022-11-13T07:42:59.922Z,50.54
2022-11-13T07:45:28.090Z,50.04
2022-11-13T07:48:01.954Z,50.15
2022-11-13T07:50:30.070Z,50.25
2022-11-13T07:53:01.795Z,50.23
2022-11-13T07:55:28.597Z,50.03
2022-11-13T07:57:56.864Z,49.67
2022-11-13T08:00:24.145Z,49.16
2022-11-13T08:02:50.980Z,48.60
2022-11-13T08:05:17.448Z,48.15
2022-11-13T08:07:51.396Z,47.84
2022-11-13T08:10:19.528Z,47.64
2022-11-13T08:12:46.121Z,47.14
2022-11-13T08:15:13.722Z,46.25
2022-11-13T08:17:40.577Z,45.33
2022-11-13T08:20:08.133Z,44.42
2022-11-13T08:22:34.763Z,43.51
2022-11-13T08:25:01.239Z,42.95
2022-11-13T08:27:27.709Z,42.38
2022-11-13T08:29:54.193Z,41.08
2022-11-13T08:32:22.493Z,40.37
2022-11-13T08:34:49.277Z,39.47
2022-11-13T08:37:16.016Z,38.35
2022-11-13T08:39:42.870Z,37.73
2022-11-13T08:42:09.330Z,36.76
2022-11-13T08:44:35.806Z,36.02
2022-11-13T08:47:02.339Z,35.38
2022-11-13T08:49:28.841Z,34.53
2022-11-13T08:51:55.318Z,33.77
2022-11-13T08:54:21.848Z,33.66
2022-11-13T08:56:52.974Z,32.62
2022-11-13T08:59:23.661Z,32.88
2022-11-13T09:01:50.649Z,31.98
2022-11-13T09:04:17.136Z,31.56
2022-11-13T09:06:43.733Z,31.27
2022-11-13T09:09:10.250Z,30.67
2022-11-13T09:11:37.021Z,30.36
2022-11-13T09:14:03.508Z,27.88
2022-11-13T09:16:29.980Z,23.45
2022-11-13T09:18:56.461Z,18.95
2022-11-13T09:21:22.945Z,14.80
2022-11-13T09:23:49.519Z,12.57
2022-11-13T09:26:16.770Z,10.65
2022-11-13T09:28:43.676Z,9.23
2022-11-13T09:31:10.286Z,7.90
2022-11-13T09:33:36.812Z,6.91
2022-11-13T09:36:03.543Z,6.35
2022-11-13T09:38:31.949Z,6.01
2022-11-13T09:41:05.628Z,5.95
2022-11-13T09:43:38.589Z,5.62
2022-11-13T09:46:20.129Z,5.16
2022-11-13T09:49:16.859Z,4.66
2022-11-13T09:51:58.509Z,4.85
2022-11-13T09:54:26.277Z,4.28
2022-11-13T09:56:58.489Z,4.24
2022-11-13T09:59:34.756Z,3.85
2022-11-13T10:02:01.426Z,3.81
2022-11-13T10:04:43.972Z,4.14
2022-11-13T10:07:13.720Z,3.81
2022-11-13T10:10:01.688Z,4.06
2022-11-13T10:12:30.455Z,3.88
2022-11-13T10:15:01.192Z,3.87
2022-11-13T10:17:41.233Z,3.79
2022-11-13T10:20:13.197Z,3.69
2022-11-13T10:22:43.248Z,3.02
2022-11-13T10:25:12.657Z,3.12
2022-11-13T10:27:39.583Z,3.16
2022-11-13T10:30:14.026Z,2.93
2022-11-13T10:32:40.544Z,3.10
2022-11-13T10:35:07.065Z,3.16
2022-11-13T10:37:55.531Z,2.77
2022-11-13T10:40:30.793Z,3.23
2022-11-13T10:43:13.235Z,3.16
2022-11-13T10:45:40.237Z,3.13
2022-11-13T10:48:19.499Z,2.73
2022-11-13T10:50:53.580Z,3.55
2022-11-13T10:53:20.627Z,3.23
2022-11-13T10:55:50.688Z,3.44
2022-11-13T10:58:19.258Z,2.62
2022-11-13T11:00:48.994Z,2.89
2022-11-13T11:03:19.995Z,2.74
2022-11-13T11:06:00.761Z,2.38
2022-11-13T11:08:33.060Z,2.43
2022-11-13T11:11:20.388Z,2.30
2022-11-13T11:13:48.363Z,2.37
2022-11-13T11:16:20.328Z,3.13
2022-11-13T11:18:54.021Z,2.55
2022-11-13T11:21:23.840Z,2.84
2022-11-13T11:24:05.835Z,2.92
2022-11-13T11:26:41.208Z,2.65
2022-11-13T11:29:21.468Z,3.16
2022-11-13T11:31:58.275Z,2.50
2022-11-13T11:34:41.098Z,2.73
2022-11-13T11:37:14.562Z,2.99
2022-11-13T11:39:46.853Z,2.82
2022-11-13T11:42:39.525Z,3.18
2022-11-13T11:45:35.480Z,2.58
2022-11-13T11:48:04.194Z,2.94
2022-11-13T11:50:46.223Z,3.00
2022-11-13T11:53:48.623Z,2.61
2022-11-13T11:56:27.736Z,3.52
2022-11-13T11:59:09.622Z,3.08
2022-11-13T12:02:02.294Z,3.38
2022-11-13T12:04:34.943Z,3.60
2022-11-13T12:07:29.161Z,2.85
2022-11-13T12:10:07.613Z,2.98
2022-11-13T12:12:52.334Z,3.03
2022-11-13T12:15:26.183Z,3.83
2022-11-13T12:18:25.134Z,6.02
2022-11-13T12:21:19.307Z,8.91
2022-11-13T12:23:56.410Z,11.33
2022-11-13T12:26:37.672Z,13.74
2022-11-13T12:29:16.473Z,15.71
2022-11-13T12:31:47.162Z,17.23
2022-11-13T12:34:29.975Z,18.70
2022-11-13T12:36:57.960Z,19.78
2022-11-13T12:39:46.216Z,21.13
2022-11-13T12:42:34.319Z,21.58
2022-11-13T12:45:33.557Z,21.90
2022-11-13T12:48:09.286Z,22.67
2022-11-13T12:50:36.186Z,23.32
2022-11-13T12:53:08.655Z,23.33
2022-11-13T12:55:37.642Z,24.74
2022-11-13T12:58:29.969Z,25.60
2022-11-13T13:01:11.966Z,26.35
2022-11-13T13:03:41.410Z,26.45
2022-11-13T13:06:30.243Z,26.98
2022-11-13T13:08:59.565Z,27.78
2022-11-13T13:11:32.713Z,27.85
2022-11-13T13:14:37.779Z,28.09
2022-11-13T13:17:25.849Z,27.65
2022-11-13T13:20:22.351Z,27.97
2022-11-13T13:22:59.402Z,27.50
2022-11-13T13:25:34.387Z,27.35
2022-11-13T13:28:23.003Z,27.81
2022-11-13T13:31:24.979Z,28.28
2022-11-13T13:34:04.720Z,28.88
2022-11-13T13:36:56.150Z,29.19
2022-11-13T13:39:26.677Z,29.10
2022-11-13T13:41:57.805Z,28.83
2022-11-13T13:44:46.285Z,29.43
2022-11-13T13:47:28.995Z,29.52
2022-11-13T13:49:55.821Z,29.36
2022-11-13T13:52:30.633Z,30.59
2022-11-13T13:54:59.769Z,30.24
2022-11-13T13:57:26.747Z,30.46
2022-11-13T13:59:53.296Z,30.83
2022-11-13T14:02:24.618Z,31.23
2022-11-13T14:04:52.893Z,31.69
2022-11-13T14:07:29.558Z,32.58
2022-11-13T14:10:06.611Z,33.46
2022-11-13T14:12:33.088Z,33.21
2022-11-13T14:14:59.611Z,33.55
2022-11-13T14:17:26.136Z,33.48
2022-11-13T14:19:54.353Z,34.13
2022-11-13T14:22:21.291Z,34.37
2022-11-13T14:24:54.351Z,35.12
2022-11-13T14:27:23.780Z,34.89
2022-11-13T14:29:56.603Z,35.52
2022-11-13T14:32:26.633Z,35.45
2022-11-13T14:34:55.926Z,36.03
2022-11-13T14:37:31.574Z,36.12
2022-11-13T14:40:00.877Z,36.49
2022-11-13T14:42:36.530Z,37.01
2022-11-13T14:45:13.681Z,37.84
2022-11-13T14:47:40.277Z,37.68
2022-11-13T14:50:21.902Z,38.99
2022-11-13T14:53:08.818Z,39.25
2022-11-13T14:55:51.683Z,39.48
2022-11-13T14:58:35.625Z,40.00
2022-11-13T15:01:17.240Z,39.87
2022-11-13T15:03:45.175Z,40.15
2022-11-13T15:06:14.709Z,40.72
2022-11-13T15:08:41.443Z,40.89
2022-11-13T15:11:09.762Z,40.77
2022-11-13T15:13:36.428Z,40.66
2022-11-13T15:16:02.933Z,40.64
2022-11-13T15:18:29.414Z,40.14
2022-11-13T15:20:56.050Z,38.47
2022-11-13T15:23:24.319Z,37.94
2022-11-13T15:25:50.817Z,37.66
2022-11-13T15:28:17.315Z,37.42
2022-11-13T15:30:43.904Z,36.79
2022-11-13T15:33:14.200Z,36.66
2022-11-13T15:35:42.735Z,37.22
2022-11-13T15:38:12.429Z,36.83
2022-11-13T15:40:39.368Z,36.65
2022-11-13T15:43:06.561Z,36.91
2022-11-13T15:45:33.016Z,36.81
2022-11-13T15:47:59.445Z,37.52
2022-11-13T15:50:26.082Z,37.26
2022-11-13T15:52:53.122Z,37.33
2022-11-13T15:55:28.987Z,37.71
2022-11-13T15:57:55.981Z,38.14
2022-11-13T16:00:25.306Z,38.32
2022-11-13T16:02:55.392Z,38.57
2022-11-13T16:05:28.924Z,38.48
2022-11-13T16:07:55.817Z,38.06
2022-11-13T16:10:25.011Z,37.30
2022-11-13T16:12:52.580Z,36.27
2022-11-13T16:15:19.686Z,35.38
2022-11-13T16:17:56.988Z,34.94
2022-11-13T16:20:24.003Z,34.85
2022-11-13T16:22:50.702Z,34.93
2022-11-13T16:25:19.889Z,34.66
2022-11-13T16:27:46.426Z,34.79
2022-11-13T16:30:19.934Z,35.45
2022-11-13T16:32:46.522Z,35.14
2022-11-13T16:35:17.702Z,35.03
2022-11-13T16:37:44.222Z,35.04
2022-11-13T16:40:20.948Z,34.95
2022-11-13T16:42:47.545Z,34.90
2022-11-13T16:45:14.111Z,35.13
2022-11-13T16:47:41.004Z,34.80
2022-11-13T16:50:29.816Z,34.83
2022-11-13T16:52:56.739Z,35.09
2022-11-13T16:55:23.714Z,34.96
2022-11-13T16:57:50.409Z,34.98
2022-11-13T17:00:18.205Z,34.95
2022-11-13T17:02:44.983Z,35.20
2022-11-13T17:05:14.088Z,35.60
2022-11-13T17:07:41.148Z,35.08
2022-11-13T17:10:30.334Z,35.20
2022-11-13T17:12:57.812Z,34.97
2022-11-13T17:15:24.266Z,35.53
2022-11-13T17:17:50.838Z,35.45
2022-11-13T17:20:19.347Z,35.19
2022-11-13T17:22:48.530Z,35.55
2022-11-13T17:25:18.560Z,35.79
2022-11-13T17:27:45.042Z,35.64
2022-11-13T17:30:12.750Z,35.59
2022-11-13T17:32:39.485Z,35.87
2022-11-13T17:35:06.628Z,36.01
2022-11-13T17:37:33.964Z,36.15
2022-11-13T17:40:00.547Z,36.63
2022-11-13T17:42:28.600Z,36.90
2022-11-13T17:44:55.279Z,37.20
2022-11-13T17:47:22.346Z,37.62
2022-11-13T17:49:48.999Z,37.26
2022-11-13T17:52:15.611Z,37.41
2022-11-13T17:54:42.131Z,37.40
2022-11-13T17:57:10.223Z,36.99
2022-11-13T17:59:36.817Z,36.96
2022-11-13T18:02:03.372Z,36.90
2022-11-13T18:04:29.895Z,37.30
2022-11-13T18:06:56.412Z,37.54
2022-11-13T18:09:22.999Z,37.38
2022-11-13T18:11:49.470Z,37.75
2022-11-13T18:14:15.982Z,38.34
2022-11-13T18:16:42.513Z,38.98
2022-11-13T18:19:09.369Z,39.07
2022-11-13T18:21:36.241Z,40.57
2022-11-13T18:24:08.329Z,40.45
2022-11-13T18:26:35.127Z,39.62
2022-11-13T18:29:01.890Z,40.10
2022-11-13T18:31:29.560Z,39.68
2022-11-13T18:33:58.778Z,39.37
2022-11-13T18:36:26.371Z,39.45
2022-11-13T18:38:53.080Z,39.48
2022-11-13T18:41:21.635Z,40.03
2022-11-13T18:43:49.830Z,39.99
2022-11-13T18:46:18.554Z,40.09
2022-11-13T18:48:45.978Z,40.29
2022-11-13T18:51:20.820Z,40.15
2022-11-13T18:53:49.008Z,40.44
2022-11-13T18:56:19.091Z,40.72
2022-11-13T18:58:46.888Z,40.61
2022-11-13T19:01:20.467Z,40.56
2022-11-13T19:04:08.185Z,40.05
2022-11-13T19:06:36.689Z,39.90
2022-11-13T19:09:10.546Z,40.25
2022-11-13T19:11:37.170Z,40.96
2022-11-13T19:14:04.234Z,41.80
2022-11-13T19:16:33.765Z,41.17
2022-11-13T19:19:03.587Z,40.91
2022-11-13T19:21:31.491Z,41.31
2022-11-13T19:23:58.694Z,40.96
2022-11-13T19:26:26.103Z,40.70
2022-11-13T19:28:53.564Z,40.97
2022-11-13T19:31:22.489Z,41.16
2022-11-13T19:33:55.285Z,41.44
2022-11-13T19:36:30.001Z,41.45
2022-11-13T19:38:56.895Z,41.79
2022-11-13T19:41:23.917Z,41.74
2022-11-13T19:43:50.468Z,41.44
2022-11-13T19:46:18.114Z,42.10
2022-11-13T19:48:45.866Z,41.91
2022-11-13T19:51:20.592Z,41.42
2022-11-13T19:53:47.331Z,41.39
2022-11-13T19:56:16.073Z,41.66
2022-11-13T19:58:46.988Z,41.54
2022-11-13T20:01:16.935Z,41.61
2022-11-13T20:03:43.737Z,41.25
2022-11-13T20:06:13.350Z,41.32
2022-11-13T20:08:39.937Z,41.47
2022-11-13T20:11:10.128Z,41.47
2022-11-13T20:13:38.307Z,41.22
2022-11-13T20:16:06.543Z,41.17
2022-11-13T20:18:33.106Z,41.40
2022-11-13T20:21:00.077Z,41.13
2022-11-13T20:23:26.620Z,41.18
2022-11-13T20:25:59.168Z,41.26
2022-11-13T20:28:27.541Z,41.01
2022-11-13T20:31:19.686Z,40.94
2022-11-13T20:33:47.417Z,40.99
2022-11-13T20:36:14.859Z,40.88
2022-11-13T20:38:44.104Z,40.89
2022-11-13T20:41:11.539Z,41.24
2022-11-13T20:43:38.606Z,41.49
2022-11-13T20:46:09.953Z,41.51
2022-11-13T20:48:36.766Z,41.88
2022-11-13T20:51:17.687Z,42.20
2022-11-13T20:53:44.263Z,42.13
2022-11-13T20:56:10.934Z,42.45
2022-11-13T20:58:37.527Z,43.11
2022-11-13T21:01:05.873Z,43.71
2022-11-13T21:03:35.977Z,43.79
2022-11-13T21:06:07.447Z,43.46
2022-11-13T21:08:35.147Z,43.38
2022-11-13T21:11:02.698Z,43.05
2022-11-13T21:13:30.554Z,43.94
2022-11-13T21:15:57.011Z,43.64
2022-11-13T21:18:23.751Z,43.45
2022-11-13T21:20:50.688Z,43.17
2022-11-13T21:23:17.203Z,44.03
2022-11-13T21:25:43.713Z,43.87
2022-11-13T21:28:10.297Z,44.23
2022-11-13T21:30:36.815Z,44.77
2022-11-13T21:33:03.866Z,44.47
2022-11-13T21:35:30.423Z,44.36
2022-11-13T21:37:56.890Z,45.55
2022-11-13T21:40:23.609Z,46.09
2022-11-13T21:42:50.156Z,45.66
2022-11-13T21:45:16.677Z,45.34
2022-11-13T21:47:43.386Z,45.10
2022-11-13T21:50:10.261Z,45.69
2022-11-13T21:52:36.828Z,46.02
2022-11-13T21:55:03.662Z,45.73
2022-11-13T21:57:30.223Z,45.95
2022-11-13T21:59:56.671Z,45.47
2022-11-13T22:02:23.240Z,45.56
2022-11-13T22:04:50.859Z,45.40
2022-11-13T22:07:17.815Z,46.60
2022-11-13T22:09:44.459Z,46.08
2022-11-13T22:12:11.023Z,46.57
2022-11-13T22:14:37.684Z,46.04
2022-11-13T22:17:04.157Z,45.89
2022-11-13T22:19:35.695Z,46.16
2022-11-13T22:22:02.890Z,45.58
2022-11-13T22:24:29.686Z,45.60
2022-11-13T22:26:56.914Z,45.49
2022-11-13T22:29:23.369Z,45.31
2022-11-13T22:31:49.911Z,45.25
2022-11-13T22:34:16.379Z,45.74
2022-11-13T22:36:42.803Z,45.64
2022-11-13T22:39:09.509Z,45.73
2022-11-13T22:41:36.488Z,45.94
2022-11-13T22:44:08.078Z,45.80
2022-11-13T22:46:36.020Z,46.13
2022-11-13T22:49:04.766Z,46.16
2022-11-13T22:51:35.076Z,46.62
2022-11-13T22:54:03.645Z,46.13
2022-11-13T22:56:31.778Z,46.13
2022-11-13T22:59:00.777Z,45.99
2022-11-13T23:01:32.398Z,46.46
2022-11-13T23:04:01.331Z,46.55
2022-11-13T23:06:30.280Z,46.98
2022-11-13T23:08:57.141Z,46.76
2022-11-13T23:11:27.367Z,46.90
2022-11-13T23:13:58.680Z,46.96
2022-11-13T23:16:26.553Z,47.63
2022-11-13T23:18:54.905Z,47.22
2022-11-13T23:21:21.874Z,47.03
2022-11-13T23:23:48.419Z,46.88
2022-11-13T23:26:15.656Z,46.80
2022-11-13T23:28:42.157Z,46.75
2022-11-13T23:31:09.050Z,46.99
2022-11-13T23:33:35.661Z,46.99
2022-11-13T23:36:02.555Z,46.59
2022-11-13T23:38:29.357Z,46.80
2022-11-13T23:40:57.177Z,46.87
2022-11-13T23:43:47.378Z,46.80
2022-11-13T23:46:11.803Z,47.14
2022-11-13T23:48:40.147Z,47.30
2022-11-13T23:51:07.347Z,47.18
2022-11-13T23:53:33.816Z,47.33
2022-11-13T23:56:00.427Z,47.23
2022-11-13T23:58:27.514Z,47.21
